createdAt,value
2022-10-22T00:26:10.210Z,79.48
2022-10-22T00:48:05.005Z,80.23
2022-10-22T01:10:00.299Z,79.74
2022-10-22T01:31:52.816Z,79.29
2022-10-22T01:53:48.101Z,79.45
2022-10-22T02:15:36.530Z,80.15
2022-10-22T02:37:23.349Z,79.43
2022-10-22T02:59:09.060Z,80.45
2022-10-22T03:21:05.730Z,81.52
2022-10-22T03:42:51.495Z,81.31
2022-10-22T04:26:09.232Z,81.91
2022-10-22T04:47:54.939Z,81.67
2022-10-22T05:09:41.017Z,81.91
2022-10-22T05:31:28.831Z,82.14
2022-10-22T05:53:14.928Z,81.80
2022-10-22T06:15:00.681Z,82.00
2022-10-22T06:36:47.360Z,82.26
2022-10-22T06:58:33.095Z,81.74
2022-10-22T07:20:19.087Z,81.31
2022-10-22T07:42:04.983Z,81.65
2022-10-22T08:03:50.838Z,81.09
2022-10-22T08:25:37.044Z,80.85
2022-10-22T08:47:38.533Z,81.60
2022-10-22T09:15:19.009Z,80.53
2022-10-22T09:37:07.696Z,79.84
2022-10-22T09:58:53.863Z,78.84
2022-10-22T10:20:45.856Z,77.59
2022-10-22T10:42:38.993Z,76.55
2022-10-22T11:04:43.214Z,78.30
2022-10-22T11:26:38.697Z,80.18
2022-10-22T11:48:30.135Z,79.34
2022-10-22T12:10:22.060Z,77.79
2022-10-22T12:32:12.897Z,77.79
2022-10-22T12:54:03.257Z,76.79
2022-10-22T13:26:17.236Z,78.93
2022-10-22T13:48:03.177Z,81.93
2022-10-22T14:09:49.303Z,83.21
2022-10-22T14:31:36.550Z,83.92
2022-10-22T14:53:22.238Z,84.09
2022-10-22T15:15:09.820Z,84.54
2022-10-22T15:36:57.507Z,84.70
2022-10-22T15:58:43.349Z,85.54
2022-10-22T16:20:29.173Z,85.77
2022-10-22T16:42:15.067Z,86.02
2022-10-22T17:04:02.204Z,85.71
2022-10-22T17:25:48.044Z,85.88
2022-10-22T17:47:33.822Z,86.37
2022-10-22T18:15:15.878Z,85.93
2022-10-22T18:37:01.650Z,85.59
2022-10-22T18:58:48.903Z,85.35
2022-10-22T19:20:35.391Z,84.97
2022-10-22T19:42:21.555Z,85.02
2022-10-22T20:04:07.668Z,84.78
2022-10-22T20:25:53.424Z,84.27
2022-10-22T20:47:51.130Z,84.25
2022-10-22T21:09:44.398Z,83.89
2022-10-22T21:31:30.656Z,83.89
2022-10-22T21:53:16.384Z,83.99
2022-10-22T22:15:02.195Z,83.58
2022-10-22T22:36:49.445Z,83.28
2022-10-22T22:58:35.581Z,83.72
2022-10-22T23:20:21.284Z,83.97
2022-10-22T23:45:45.725Z,84.38
